createdAt,value
2022-10-23T00:01:22.627Z,94.74
2022-10-23T00:03:53.144Z,94.65
2022-10-23T00:06:23.535Z,94.68
2022-10-23T00:08:54.304Z,94.59
2022-10-23T00:11:24.991Z,94.68
2022-10-23T00:13:55.324Z,94.62
2022-10-23T00:16:25.653Z,94.51
2022-10-23T00:18:56.150Z,94.52
2022-10-23T00:21:26.629Z,94.42
2022-10-23T00:23:56.942Z,94.30
2022-10-23T00:26:27.497Z,94.35
2022-10-23T00:28:58.089Z,94.37
2022-10-23T00:31:28.446Z,94.33
2022-10-23T00:33:58.778Z,94.39
2022-10-23T00:36:28.969Z,94.39
2022-10-23T00:38:59.171Z,94.46
2022-10-23T00:41:29.381Z,94.44
2022-10-23T00:43:59.921Z,94.35
2022-10-23T00:46:30.389Z,94.45
2022-10-23T00:49:00.736Z,94.37
2022-10-23T00:51:30.866Z,94.26
2022-10-23T00:54:22.951Z,94.07
2022-10-23T00:56:31.904Z,94.08
2022-10-23T00:59:02.164Z,93.97
2022-10-23T01:01:33.118Z,93.98
2022-10-23T01:04:03.153Z,93.97
2022-10-23T01:06:33.660Z,94.08
2022-10-23T01:09:03.941Z,94.09
2022-10-23T01:11:34.312Z,94.39
2022-10-23T01:14:05.018Z,94.74
2022-10-23T01:16:35.267Z,95.02
2022-10-23T01:19:05.702Z,95.31
2022-10-23T01:21:35.809Z,95.43
2022-10-23T01:24:06.551Z,95.45
2022-10-23T01:26:36.888Z,95.52
2022-10-23T01:29:07.283Z,95.65
2022-10-23T01:31:37.640Z,95.70
2022-10-23T01:34:08.248Z,95.66
2022-10-23T01:36:39.051Z,95.62
2022-10-23T01:39:09.718Z,95.61
2022-10-23T01:41:40.420Z,95.47
2022-10-23T01:44:10.711Z,95.41
2022-10-23T01:46:40.953Z,95.35
2022-10-23T01:49:11.184Z,95.42
2022-10-23T01:51:41.634Z,95.45
2022-10-23T01:54:12.231Z,95.33
2022-10-23T01:56:42.981Z,95.21
2022-10-23T01:59:13.525Z,95.15
2022-10-23T02:01:44.192Z,95.23
2022-10-23T02:04:14.546Z,95.10
2022-10-23T02:06:44.684Z,94.88
2022-10-23T02:09:14.974Z,94.70
2022-10-23T02:11:45.493Z,94.65
2022-10-23T02:14:15.826Z,94.73
2022-10-23T02:16:46.007Z,94.86
2022-10-23T02:19:16.558Z,94.93
2022-10-23T02:21:47.007Z,94.83
2022-10-23T02:24:17.414Z,94.73
2022-10-23T02:26:48.169Z,94.62
2022-10-23T02:29:18.739Z,94.51
2022-10-23T02:31:48.897Z,94.43
2022-10-23T02:34:19.761Z,94.41
2022-10-23T02:36:50.271Z,94.35
2022-10-23T02:39:20.368Z,94.34
2022-10-23T02:41:50.757Z,94.09
2022-10-23T02:44:21.272Z,93.98
2022-10-23T02:46:51.955Z,93.91
2022-10-23T02:49:22.157Z,93.79
2022-10-23T02:51:52.694Z,93.89
2022-10-23T02:54:22.717Z,93.95
2022-10-23T02:56:53.065Z,94.03
2022-10-23T02:59:23.494Z,94.13
2022-10-23T03:01:53.516Z,94.07
2022-10-23T03:04:23.704Z,94.27
2022-10-23T03:06:54.218Z,94.09
2022-10-23T03:09:24.273Z,94.18
2022-10-23T03:11:54.606Z,94.27
2022-10-23T03:14:24.857Z,94.49
2022-10-23T03:16:55.709Z,94.64
2022-10-23T03:19:26.533Z,94.70
2022-10-23T03:21:56.584Z,94.70
2022-10-23T03:24:27.191Z,94.77
2022-10-23T03:26:58.061Z,94.94
2022-10-23T03:29:28.344Z,95.12
2022-10-23T03:31:58.780Z,95.02
2022-10-23T03:34:28.807Z,94.96
2022-10-23T03:36:59.528Z,94.83
2022-10-23T03:39:30.218Z,94.82
2022-10-23T03:42:00.290Z,94.63
2022-10-23T03:44:31.024Z,94.39
2022-10-23T03:47:01.296Z,94.29
2022-10-23T03:49:31.626Z,94.19
2022-10-23T03:52:01.603Z,94.08
2022-10-23T03:54:32.389Z,93.89
2022-10-23T03:57:03.128Z,93.84
2022-10-23T03:59:33.756Z,93.89
2022-10-23T04:02:04.265Z,93.76
2022-10-23T04:04:34.698Z,93.83
2022-10-23T04:07:05.214Z,93.85
2022-10-23T04:09:35.762Z,93.87
2022-10-23T04:12:06.507Z,93.88
2022-10-23T04:14:36.822Z,93.83
2022-10-23T04:17:07.010Z,93.88
2022-10-23T04:19:37.213Z,93.81
2022-10-23T04:22:07.426Z,93.88
2022-10-23T04:24:37.937Z,93.83
2022-10-23T04:27:08.460Z,93.94
2022-10-23T04:29:39.004Z,94.05
2022-10-23T04:32:09.473Z,94.28
2022-10-23T04:34:40.299Z,94.21
2022-10-23T04:37:10.651Z,94.17
2022-10-23T04:39:41.292Z,94.02
2022-10-23T04:42:11.855Z,93.83
2022-10-23T04:44:42.110Z,93.79
2022-10-23T04:47:12.470Z,93.84
2022-10-23T04:49:43.250Z,93.83
2022-10-23T04:52:13.826Z,93.89
2022-10-23T04:54:44.059Z,94.06
2022-10-23T04:57:14.507Z,94.28
2022-10-23T04:59:45.138Z,94.50
2022-10-23T05:02:15.557Z,94.69
2022-10-23T05:04:46.177Z,94.69
2022-10-23T05:07:16.413Z,94.87
2022-10-23T05:09:46.911Z,94.73
2022-10-23T05:12:17.427Z,94.55
2022-10-23T05:14:47.985Z,94.50
2022-10-23T05:17:18.227Z,94.49
2022-10-23T05:19:48.776Z,94.47
2022-10-23T05:22:18.959Z,94.42
2022-10-23T05:24:50.596Z,94.55
2022-10-23T05:27:19.484Z,94.72
2022-10-23T05:29:49.730Z,94.77
2022-10-23T05:34:50.587Z,95.06
2022-10-23T05:37:20.742Z,95.00
2022-10-23T05:39:51.151Z,95.08
2022-10-23T05:42:21.475Z,94.97
2022-10-23T05:44:51.588Z,94.91
2022-10-23T05:47:21.580Z,94.75
2022-10-23T05:49:52.251Z,94.34
2022-10-23T05:52:22.822Z,94.27
2022-10-23T05:54:53.178Z,94.34
2022-10-23T05:57:23.423Z,94.29
2022-10-23T05:59:53.391Z,94.38
2022-10-23T06:02:23.800Z,94.37
2022-10-23T06:04:53.851Z,94.41
2022-10-23T06:07:24.158Z,94.34
2022-10-23T06:09:54.422Z,94.38
2022-10-23T06:12:24.536Z,94.42
2022-10-23T06:14:55.082Z,94.39
2022-10-23T06:17:25.036Z,94.27
2022-10-23T06:19:55.902Z,94.38
2022-10-23T06:22:26.071Z,94.36
2022-10-23T06:24:56.524Z,94.30
2022-10-23T06:27:26.827Z,94.37
2022-10-23T06:29:57.410Z,94.55
2022-10-23T06:32:27.504Z,94.63
2022-10-23T06:34:57.642Z,94.69
2022-10-23T06:37:28.410Z,94.64
2022-10-23T06:39:58.521Z,94.71
2022-10-23T06:42:28.761Z,94.65
2022-10-23T06:45:03.244Z,94.59
2022-10-23T06:47:29.887Z,94.78
2022-10-23T06:50:00.340Z,94.96
2022-10-23T06:52:45.949Z,95.18
2022-10-23T06:55:00.604Z,95.26
2022-10-23T06:57:30.626Z,95.30
2022-10-23T07:00:01.433Z,95.37
2022-10-23T07:02:31.383Z,95.32
2022-10-23T07:05:02.082Z,95.30
2022-10-23T07:07:32.568Z,95.41
2022-10-23T07:10:03.238Z,95.48
2022-10-23T07:12:33.350Z,95.51
2022-10-23T07:15:03.997Z,95.78
2022-10-23T07:17:34.062Z,95.79
2022-10-23T07:20:04.640Z,95.68
2022-10-23T07:22:34.831Z,95.87
2022-10-23T07:25:05.599Z,95.98
2022-10-23T07:27:36.127Z,96.05
2022-10-23T07:30:06.760Z,96.11
2022-10-23T07:32:37.153Z,96.29
2022-10-23T07:35:07.192Z,96.43
2022-10-23T07:37:37.650Z,96.33
2022-10-23T07:40:08.170Z,96.31
2022-10-23T07:42:38.664Z,96.39
2022-10-23T07:45:09.317Z,96.41
2022-10-23T07:47:39.356Z,96.55
2022-10-23T07:50:09.613Z,96.40
2022-10-23T07:52:39.817Z,96.49
2022-10-23T07:55:10.107Z,96.74
2022-10-23T07:57:40.536Z,96.72
2022-10-23T08:00:11.523Z,96.90
2022-10-23T08:02:42.475Z,96.88
2022-10-23T08:05:13.026Z,97.04
2022-10-23T08:07:43.141Z,97.14
2022-10-23T08:10:13.309Z,97.20
2022-10-23T08:12:44.146Z,97.35
2022-10-23T08:15:14.339Z,97.44
2022-10-23T08:17:45.146Z,97.32
2022-10-23T08:20:15.369Z,97.30
2022-10-23T08:22:45.801Z,97.14
2022-10-23T08:25:16.382Z,97.53
2022-10-23T08:27:46.762Z,97.71
2022-10-23T08:30:17.323Z,97.79
2022-10-23T08:32:47.682Z,97.73
2022-10-23T08:35:18.180Z,97.65
2022-10-23T08:37:48.350Z,97.66
2022-10-23T08:40:18.835Z,97.68
2022-10-23T08:42:49.278Z,97.62
2022-10-23T08:45:19.777Z,97.83
2022-10-23T08:47:50.197Z,97.84
2022-10-23T08:50:20.794Z,97.84
2022-10-23T08:52:51.063Z,98.41
2022-10-23T08:55:21.580Z,98.31
2022-10-23T08:57:51.929Z,98.23
2022-10-23T09:00:22.259Z,98.40
2022-10-23T09:02:52.498Z,98.35
2022-10-23T09:05:22.975Z,98.74
2022-10-23T09:07:53.348Z,98.82
2022-10-23T09:10:23.776Z,98.80
2022-10-23T09:12:54.266Z,98.86
2022-10-23T09:15:24.651Z,98.99
2022-10-23T09:17:55.045Z,98.97
2022-10-23T09:20:25.488Z,99.10
2022-10-23T09:22:55.961Z,99.30
2022-10-23T09:25:26.326Z,99.27
2022-10-23T09:27:57.448Z,99.09
2022-10-23T09:30:26.801Z,99.29
2022-10-23T09:32:57.183Z,99.18
2022-10-23T09:35:27.698Z,99.22
2022-10-23T09:37:58.005Z,99.44
2022-10-23T09:40:28.387Z,99.44
2022-10-23T09:42:58.784Z,99.32
2022-10-23T09:45:29.199Z,99.50
2022-10-23T09:47:59.558Z,99.31
2022-10-23T09:50:29.659Z,99.31
2022-10-23T09:53:00.042Z,99.21
2022-10-23T09:55:30.500Z,98.94
2022-10-23T09:58:00.825Z,99.18
2022-10-23T10:00:31.203Z,98.96
2022-10-23T10:03:01.280Z,99.04
2022-10-23T10:05:31.672Z,98.83
2022-10-23T10:08:02.030Z,99.02
2022-10-23T10:10:32.429Z,98.74
2022-10-23T10:13:02.793Z,98.70
2022-10-23T10:15:33.186Z,98.63
2022-10-23T10:18:03.200Z,98.68
2022-10-23T10:20:33.573Z,98.46
2022-10-23T10:23:04.261Z,98.32
2022-10-23T10:25:34.416Z,98.37
2022-10-23T10:28:04.788Z,98.35
2022-10-23T10:30:35.122Z,98.37
2022-10-23T10:33:05.152Z,98.25
2022-10-23T10:35:35.473Z,98.26
2022-10-23T10:38:05.916Z,98.49
2022-10-23T10:40:36.187Z,98.42
2022-10-23T10:43:06.520Z,98.21
2022-10-23T10:45:36.915Z,98.20
2022-10-23T10:48:07.248Z,98.13
2022-10-23T10:50:37.631Z,98.16
2022-10-23T10:53:07.954Z,98.10
2022-10-23T10:55:38.371Z,98.13
2022-10-23T10:58:08.697Z,98.05
2022-10-23T11:00:39.182Z,97.81
2022-10-23T11:03:09.448Z,97.26
2022-10-23T11:05:39.898Z,97.56
2022-10-23T11:08:10.206Z,97.39
2022-10-23T11:10:40.646Z,97.40
2022-10-23T11:13:10.892Z,97.68
2022-10-23T11:15:41.386Z,97.34
2022-10-23T11:18:11.715Z,97.39
2022-10-23T11:20:41.978Z,97.18
2022-10-23T11:23:12.366Z,96.91
2022-10-23T11:25:42.712Z,97.04
2022-10-23T11:28:13.022Z,96.84
2022-10-23T11:30:43.398Z,96.72
2022-10-23T11:33:13.719Z,96.59
2022-10-23T11:35:44.096Z,96.51
2022-10-23T11:38:14.523Z,96.54
2022-10-23T11:40:44.815Z,96.53
2022-10-23T11:43:15.118Z,96.54
2022-10-23T11:45:45.497Z,96.59
2022-10-23T11:48:15.827Z,96.54
2022-10-23T11:50:46.236Z,96.41
2022-10-23T11:53:17.132Z,96.33
2022-10-23T11:55:46.904Z,95.91
2022-10-23T11:58:17.239Z,96.06
2022-10-23T12:00:47.653Z,96.01
2022-10-23T12:03:17.972Z,95.24
2022-10-23T12:05:48.359Z,95.37
2022-10-23T12:08:18.670Z,95.13
2022-10-23T12:10:49.010Z,94.85
2022-10-23T12:13:19.085Z,95.22
2022-10-23T12:15:49.479Z,94.78
2022-10-23T12:18:19.486Z,94.48
2022-10-23T12:20:49.853Z,94.84
2022-10-23T12:23:20.221Z,94.12
2022-10-23T12:25:50.581Z,95.49
2022-10-23T12:28:21.009Z,95.98
2022-10-23T12:30:51.397Z,96.45
2022-10-23T12:33:21.684Z,96.40
2022-10-23T12:35:52.064Z,96.44
2022-10-23T12:38:22.384Z,96.39
2022-10-23T12:40:52.784Z,96.35
2022-10-23T12:43:23.128Z,96.15
2022-10-23T12:45:53.506Z,96.16
2022-10-23T12:48:23.839Z,96.03
2022-10-23T12:50:53.904Z,96.11
2022-10-23T12:53:24.355Z,95.98
2022-10-23T12:55:54.646Z,95.76
2022-10-23T12:58:24.918Z,95.73
2022-10-23T13:00:55.320Z,95.68
2022-10-23T13:03:25.650Z,95.52
2022-10-23T13:05:55.931Z,95.25
2022-10-23T13:08:26.264Z,95.43
2022-10-23T13:10:56.592Z,95.02
2022-10-23T13:13:26.918Z,94.96
2022-10-23T13:15:57.260Z,94.76
2022-10-23T13:18:27.573Z,95.05
2022-10-23T13:20:58.051Z,95.13
2022-10-23T13:23:28.229Z,95.09
2022-10-23T13:25:58.584Z,95.11
2022-10-23T13:28:28.923Z,94.85
2022-10-23T13:30:59.282Z,94.94
2022-10-23T13:33:29.594Z,94.57
2022-10-23T13:35:59.932Z,94.61
2022-10-23T13:38:30.311Z,94.76
2022-10-23T13:41:00.626Z,94.63
2022-10-23T13:43:30.769Z,94.74
2022-10-23T13:46:01.674Z,94.68
2022-10-23T13:48:32.266Z,94.51
2022-10-23T13:51:02.543Z,94.59
2022-10-23T13:53:32.521Z,94.36
2022-10-23T13:56:02.587Z,94.36
2022-10-23T13:58:32.931Z,93.84
2022-10-23T14:01:03.501Z,94.09
2022-10-23T14:03:33.566Z,94.18
2022-10-23T14:06:03.962Z,94.15
2022-10-23T14:08:34.209Z,94.08
2022-10-23T14:11:04.826Z,93.96
2022-10-23T14:13:34.866Z,94.21
2022-10-23T14:16:05.239Z,94.10
2022-10-23T14:18:35.509Z,93.95
2022-10-23T14:21:05.828Z,94.00
2022-10-23T14:23:36.136Z,93.90
2022-10-23T14:26:06.454Z,93.74
2022-10-23T14:28:36.770Z,93.74
2022-10-23T14:31:07.119Z,93.83
2022-10-23T14:33:37.412Z,93.86
2022-10-23T14:36:07.827Z,93.88
2022-10-23T14:38:38.060Z,93.83
2022-10-23T14:41:08.415Z,93.90
2022-10-23T14:43:38.743Z,93.82
2022-10-23T14:46:09.074Z,93.81
2022-10-23T14:48:39.334Z,93.69
2022-10-23T14:51:09.677Z,93.62
2022-10-23T14:53:40.033Z,93.27
2022-10-23T14:56:10.879Z,93.54
2022-10-23T14:58:41.746Z,93.50
2022-10-23T15:01:12.173Z,93.52
2022-10-23T15:03:42.401Z,93.52
2022-10-23T15:06:16.078Z,93.44
2022-10-23T15:08:43.057Z,93.39
2022-10-23T15:11:13.394Z,93.49
2022-10-23T15:13:43.754Z,93.50
2022-10-23T15:16:14.077Z,93.55
2022-10-23T15:18:44.417Z,93.67
2022-10-23T15:21:14.718Z,93.69
2022-10-23T15:23:45.044Z,93.68
2022-10-23T15:26:15.388Z,93.75
2022-10-23T15:28:46.321Z,93.68
2022-10-23T15:31:16.598Z,93.86
2022-10-23T15:33:46.895Z,93.84
2022-10-23T15:36:17.224Z,93.89
2022-10-23T15:38:47.541Z,93.79
2022-10-23T15:41:17.843Z,93.87
2022-10-23T15:46:19.159Z,93.93
2022-10-23T15:48:49.424Z,93.93
2022-10-23T15:51:20.399Z,93.93
2022-10-23T15:53:50.509Z,93.89
2022-10-23T15:56:20.820Z,93.90
2022-10-23T15:58:51.109Z,94.09
2022-10-23T16:01:21.588Z,94.09
2022-10-23T16:03:51.731Z,93.95
2022-10-23T16:06:22.056Z,93.88
2022-10-23T16:11:22.768Z,94.13
2022-10-23T16:13:53.101Z,94.23
2022-10-23T16:16:23.314Z,94.21
2022-10-23T16:18:53.635Z,94.11
2022-10-23T16:21:24.071Z,94.15
2022-10-23T16:23:54.251Z,93.99
2022-10-23T16:26:24.574Z,94.14
2022-10-23T16:28:54.874Z,94.09
2022-10-23T16:31:25.231Z,93.96
2022-10-23T16:33:55.520Z,94.02
2022-10-23T16:36:25.851Z,93.79
2022-10-23T16:38:56.179Z,93.81
2022-10-23T16:41:26.519Z,93.77
2022-10-23T16:43:56.851Z,93.82
2022-10-23T16:46:27.175Z,93.75
2022-10-23T16:48:57.536Z,93.83
2022-10-23T16:51:27.828Z,93.73
2022-10-23T16:53:58.161Z,93.51
2022-10-23T16:56:28.518Z,93.68
2022-10-23T17:01:29.423Z,93.67
2022-10-23T17:03:59.549Z,93.73
2022-10-23T17:06:29.902Z,93.79
2022-10-23T17:09:00.249Z,93.77
2022-10-23T17:11:30.600Z,93.67
2022-10-23T17:14:01.495Z,93.76
2022-10-23T17:16:31.857Z,93.83
2022-10-23T17:19:02.184Z,93.79
2022-10-23T17:21:32.545Z,93.93
2022-10-23T17:26:33.238Z,94.17
2022-10-23T17:29:03.647Z,94.21
2022-10-23T17:31:33.950Z,94.31
2022-10-23T17:34:04.277Z,94.53
2022-10-23T17:36:34.641Z,94.71
2022-10-23T17:39:04.974Z,94.84
2022-10-23T17:41:35.314Z,94.90
2022-10-23T17:44:05.663Z,94.87
2022-10-23T17:46:36.027Z,94.98
2022-10-23T17:49:06.347Z,95.05
2022-10-23T17:51:36.692Z,95.16
2022-10-23T17:54:07.088Z,95.24
2022-10-23T17:56:37.498Z,95.27
2022-10-23T17:59:07.849Z,95.32
2022-10-23T18:01:38.242Z,95.61
2022-10-23T18:04:08.414Z,95.81
2022-10-23T18:06:38.743Z,95.80
2022-10-23T18:09:09.148Z,95.94
2022-10-23T18:11:43.869Z,96.26
2022-10-23T18:14:09.793Z,95.93
2022-10-23T18:16:40.109Z,95.95
2022-10-23T18:19:10.405Z,95.80
2022-10-23T18:21:40.735Z,95.80
2022-10-23T18:24:11.115Z,96.08
2022-10-23T18:26:41.388Z,95.89
2022-10-23T18:29:11.716Z,95.92
2022-10-23T18:31:42.630Z,95.87
2022-10-23T18:34:12.962Z,96.03
2022-10-23T18:36:43.271Z,96.19
2022-10-23T18:39:14.159Z,95.98
2022-10-23T18:41:44.502Z,95.94
2022-10-23T18:44:14.810Z,96.14
2022-10-23T18:46:45.146Z,95.94
2022-10-23T18:49:15.583Z,96.14
2022-10-23T18:51:45.792Z,96.11
2022-10-23T18:54:16.105Z,95.97
2022-10-23T18:56:46.434Z,95.96
2022-10-23T18:59:16.733Z,95.91
2022-10-23T19:01:47.272Z,95.71
2022-10-23T19:04:17.413Z,95.54
2022-10-23T19:06:47.681Z,95.42
2022-10-23T19:09:18.059Z,95.43
2022-10-23T19:11:48.330Z,95.36
2022-10-23T19:14:18.613Z,95.49
2022-10-23T19:16:48.944Z,95.47
2022-10-23T19:19:19.374Z,95.54
2022-10-23T19:21:49.692Z,95.56
2022-10-23T19:24:20.457Z,95.63
2022-10-23T19:26:50.925Z,95.61
2022-10-23T19:29:21.094Z,95.64
2022-10-23T19:31:51.417Z,95.65
2022-10-23T19:34:21.728Z,95.61
2022-10-23T19:36:52.616Z,95.59
2022-10-23T19:39:22.921Z,95.48
2022-10-23T19:41:53.265Z,95.62
2022-10-23T19:44:23.583Z,95.68
2022-10-23T19:46:53.939Z,95.81
2022-10-23T19:49:24.218Z,95.74
2022-10-23T19:51:54.556Z,95.92
2022-10-23T19:54:24.869Z,95.92
2022-10-23T19:56:55.259Z,95.94
2022-10-23T19:59:25.604Z,96.01
2022-10-23T20:01:56.018Z,95.94
2022-10-23T20:04:26.159Z,96.20
2022-10-23T20:06:56.564Z,96.29
2022-10-23T20:09:26.790Z,96.43
2022-10-23T20:11:57.215Z,96.51
2022-10-23T20:14:27.444Z,96.47
2022-10-23T20:16:57.785Z,96.49
2022-10-23T20:19:28.092Z,96.54
2022-10-23T20:21:58.512Z,96.56
2022-10-23T20:24:28.733Z,96.70
2022-10-23T20:26:59.157Z,96.80
2022-10-23T20:29:29.425Z,96.79
2022-10-23T20:31:59.719Z,96.86
2022-10-23T20:34:30.133Z,96.79
2022-10-23T20:37:00.467Z,97.09
2022-10-23T20:39:30.667Z,97.00
2022-10-23T20:42:01.109Z,97.17
2022-10-23T20:44:31.312Z,97.24
2022-10-23T20:47:01.653Z,97.19
2022-10-23T20:49:31.954Z,97.23
2022-10-23T20:52:02.300Z,97.03
2022-10-23T20:54:32.612Z,96.92
2022-10-23T20:57:03.494Z,96.74
2022-10-23T20:59:33.822Z,96.61
2022-10-23T21:02:04.284Z,96.71
2022-10-23T21:04:34.475Z,96.98
2022-10-23T21:07:09.860Z,96.95
2022-10-23T21:09:35.797Z,96.99
2022-10-23T21:12:06.203Z,97.16
2022-10-23T21:14:36.535Z,97.32
2022-10-23T21:17:06.865Z,97.44
2022-10-23T21:19:37.158Z,97.36
2022-10-23T21:22:07.491Z,97.41
2022-10-23T21:24:37.838Z,97.34
2022-10-23T21:27:08.160Z,97.29
2022-10-23T21:29:38.486Z,97.37
2022-10-23T21:32:08.834Z,97.31
2022-10-23T21:34:39.151Z,97.35
2022-10-23T21:37:13.886Z,97.21
2022-10-23T21:39:39.503Z,97.15
2022-10-23T21:42:09.851Z,97.23
2022-10-23T21:44:40.215Z,97.17
2022-10-23T21:47:10.675Z,97.03
2022-10-23T21:49:40.795Z,96.98
2022-10-23T21:52:12.329Z,96.96
2022-10-23T21:54:41.443Z,97.01
2022-10-23T21:57:11.759Z,96.92
2022-10-23T21:59:42.078Z,96.76
2022-10-23T22:02:12.643Z,96.93
2022-10-23T22:04:42.730Z,96.88
2022-10-23T22:07:13.092Z,96.93
2022-10-23T22:09:43.414Z,96.76
2022-10-23T22:12:13.763Z,96.96
2022-10-23T22:14:44.113Z,96.89
2022-10-23T22:17:14.475Z,96.90
2022-10-23T22:19:44.794Z,96.89
2022-10-23T22:22:15.109Z,96.79
2022-10-23T22:24:45.416Z,96.48
2022-10-23T22:27:15.749Z,96.60
2022-10-23T22:29:46.075Z,96.42
2022-10-23T22:32:16.588Z,96.38
2022-10-23T22:34:52.752Z,96.24
2022-10-23T22:37:17.085Z,96.19
2022-10-23T22:39:47.405Z,95.92
2022-10-23T22:42:17.712Z,95.97
2022-10-23T22:44:48.047Z,95.94
2022-10-23T22:47:18.383Z,95.92
2022-10-23T22:49:48.696Z,95.80
2022-10-23T22:52:18.993Z,95.89
2022-10-23T22:54:49.312Z,96.54
2022-10-23T22:57:19.720Z,96.93
2022-10-23T22:59:49.968Z,96.46
2022-10-23T23:02:20.318Z,96.58
2022-10-23T23:04:50.609Z,96.75
2022-10-23T23:07:20.664Z,96.54
2022-10-23T23:09:51.066Z,96.34
2022-10-23T23:12:21.393Z,96.12
2022-10-23T23:14:51.724Z,95.89
2022-10-23T23:17:22.138Z,95.86
2022-10-23T23:19:52.418Z,95.69
2022-10-23T23:22:22.730Z,95.71
2022-10-23T23:24:53.040Z,96.11
2022-10-23T23:27:23.388Z,96.19
2022-10-23T23:29:53.735Z,96.20
2022-10-23T23:32:24.102Z,96.36
2022-10-23T23:34:54.433Z,96.06
2022-10-23T23:37:24.782Z,96.01
2022-10-23T23:39:55.262Z,95.93
2022-10-23T23:42:25.482Z,96.71
2022-10-23T23:45:02.826Z,97.41
2022-10-23T23:49:56.532Z,97.43
2022-10-23T23:52:27.153Z,97.86
2022-10-23T23:54:57.272Z,97.57
2022-10-23T23:57:27.594Z,98.07
2022-10-23T23:59:57.939Z,97.75
